createdAt,value
2022-12-02T00:00:19.000Z,1.28
2022-12-02T00:01:19.000Z,1.26
2022-12-02T00:02:19.000Z,1.24
2022-12-02T00:03:19.000Z,1.25
2022-12-02T00:04:19.000Z,1.31
2022-12-02T00:05:19.000Z,1.32
2022-12-02T00:06:19.000Z,1.28
2022-12-02T00:07:19.000Z,1.31
2022-12-02T00:08:19.000Z,1.25
2022-12-02T00:09:19.000Z,1.29
2022-12-02T00:10:19.000Z,1.28
2022-12-02T00:11:19.000Z,1.29
2022-12-02T00:12:19.000Z,1.29
2022-12-02T00:13:19.000Z,1.31
2022-12-02T00:14:19.000Z,1.25
2022-12-02T00:15:18.000Z,1.32
2022-12-02T00:16:18.000Z,1.28
2022-12-02T00:17:18.000Z,1.31
2022-12-02T00:18:18.000Z,1.34
2022-12-02T00:19:18.000Z,1.28
2022-12-02T00:20:18.000Z,1.28
2022-12-02T00:21:18.000Z,1.26
2022-12-02T00:22:18.000Z,1.31
2022-12-02T00:23:18.000Z,1.31
2022-12-02T00:24:18.000Z,1.28
2022-12-02T00:25:18.000Z,1.28
2022-12-02T00:26:18.000Z,1.31
2022-12-02T00:27:18.000Z,1.29
2022-12-02T00:28:18.000Z,1.29
2022-12-02T00:29:18.000Z,1.31
2022-12-02T00:30:18.000Z,1.35
2022-12-02T00:31:18.000Z,1.32
2022-12-02T00:32:18.000Z,1.31
2022-12-02T00:33:18.000Z,1.31
2022-12-02T00:34:18.000Z,1.32
2022-12-02T00:35:18.000Z,1.29
2022-12-02T00:36:18.000Z,1.31
2022-12-02T00:37:18.000Z,1.28
2022-12-02T00:38:18.000Z,1.32
2022-12-02T00:39:18.000Z,1.32
2022-12-02T00:40:18.000Z,1.32
2022-12-02T00:41:18.000Z,1.28
2022-12-02T00:42:18.000Z,1.28
2022-12-02T00:43:18.000Z,1.28
2022-12-02T00:44:18.000Z,1.29
2022-12-02T00:45:18.000Z,1.28
2022-12-02T00:46:18.000Z,1.28
2022-12-02T00:47:18.000Z,1.34
2022-12-02T00:48:18.000Z,1.34
2022-12-02T00:49:18.000Z,1.28
2022-12-02T00:50:18.000Z,1.34
2022-12-02T00:51:18.000Z,1.29
2022-12-02T00:52:18.000Z,1.29
2022-12-02T00:53:18.000Z,1.32
2022-12-02T00:54:18.000Z,1.34
2022-12-02T00:55:18.000Z,1.31
2022-12-02T00:56:18.000Z,1.29
2022-12-02T00:57:18.000Z,1.26
2022-12-02T00:58:18.000Z,1.28
2022-12-02T00:59:18.000Z,1.32
2022-12-02T01:00:18.000Z,1.31
2022-12-02T01:01:18.000Z,1.26
2022-12-02T01:02:18.000Z,1.29
2022-12-02T01:03:18.000Z,1.28
2022-12-02T01:04:18.000Z,1.26
2022-12-02T01:05:18.000Z,1.31
2022-12-02T01:06:18.000Z,1.32
2022-12-02T01:07:18.000Z,1.25
2022-12-02T01:08:18.000Z,1.32
2022-12-02T01:09:18.000Z,1.31
2022-12-02T01:10:18.000Z,1.29
2022-12-02T01:11:18.000Z,1.34
2022-12-02T01:12:18.000Z,1.31
2022-12-02T01:13:18.000Z,1.32
2022-12-02T01:14:18.000Z,1.29
2022-12-02T01:15:18.000Z,1.31
2022-12-02T01:16:18.000Z,1.31
2022-12-02T01:17:18.000Z,1.31
2022-12-02T01:18:18.000Z,1.32
2022-12-02T01:19:18.000Z,1.34
2022-12-02T01:20:18.000Z,1.34
2022-12-02T01:21:18.000Z,1.34
2022-12-02T01:22:18.000Z,1.29
2022-12-02T01:23:18.000Z,1.32
2022-12-02T01:24:18.000Z,1.35
2022-12-02T01:25:18.000Z,1.34
2022-12-02T01:26:18.000Z,1.31
2022-12-02T01:27:18.000Z,1.29
2022-12-02T01:28:18.000Z,1.29
2022-12-02T01:29:18.000Z,1.32
2022-12-02T01:30:18.000Z,1.29
2022-12-02T01:31:18.000Z,1.32
2022-12-02T01:32:18.000Z,1.31
2022-12-02T01:33:18.000Z,1.28
2022-12-02T01:34:18.000Z,1.28
2022-12-02T01:35:18.000Z,1.31
2022-12-02T01:36:18.000Z,1.28
2022-12-02T01:43:35.000Z,1.35
2022-12-02T01:43:35.000Z,1.32
2022-12-02T01:44:35.000Z,1.31
2022-12-02T01:45:35.000Z,1.34
2022-12-02T01:46:35.000Z,1.31
2022-12-02T01:47:35.000Z,1.29
2022-12-02T01:48:35.000Z,1.32
2022-12-02T01:49:35.000Z,1.31
2022-12-02T01:50:35.000Z,1.29
2022-12-02T01:51:35.000Z,1.32
2022-12-02T01:52:35.000Z,1.32
2022-12-02T01:53:35.000Z,1.32
2022-12-02T01:54:35.000Z,1.29
2022-12-02T01:55:35.000Z,1.36
2022-12-02T01:56:35.000Z,1.32
2022-12-02T01:57:35.000Z,1.34
2022-12-02T01:58:35.000Z,1.34
2022-12-02T01:59:35.000Z,1.31
2022-12-02T02:00:35.000Z,1.34
2022-12-02T02:01:35.000Z,1.34
2022-12-02T02:02:35.000Z,1.35
2022-12-02T02:03:35.000Z,1.38
2022-12-02T02:04:35.000Z,1.38
2022-12-02T02:05:35.000Z,1.36
2022-12-02T02:06:35.000Z,1.38
2022-12-02T02:07:35.000Z,1.35
2022-12-02T02:08:35.000Z,1.32
2022-12-02T02:09:35.000Z,1.38
2022-12-02T02:10:35.000Z,1.36
2022-12-02T02:11:35.000Z,1.36
2022-12-02T02:12:35.000Z,1.34
2022-12-02T02:13:35.000Z,1.34
2022-12-02T02:14:35.000Z,1.35
2022-12-02T02:15:35.000Z,1.34
2022-12-02T02:16:35.000Z,1.34
2022-12-02T02:17:35.000Z,1.36
2022-12-02T02:18:35.000Z,1.36
2022-12-02T02:19:35.000Z,1.42
2022-12-02T02:20:35.000Z,1.38
2022-12-02T02:21:35.000Z,1.38
2022-12-02T02:22:35.000Z,1.36
2022-12-02T02:23:35.000Z,1.34
2022-12-02T02:24:35.000Z,1.34
2022-12-02T02:25:35.000Z,1.39
2022-12-02T02:26:35.000Z,1.34
2022-12-02T02:27:35.000Z,1.32
2022-12-02T02:28:35.000Z,1.32
2022-12-02T02:29:35.000Z,1.36
2022-12-02T02:30:35.000Z,1.35
2022-12-02T02:31:35.000Z,1.36
2022-12-02T02:32:34.000Z,1.35
2022-12-02T02:33:34.000Z,1.38
2022-12-02T02:34:34.000Z,1.35
2022-12-02T02:35:34.000Z,1.38
2022-12-02T02:36:34.000Z,1.34
2022-12-02T02:37:34.000Z,1.36
2022-12-02T02:38:34.000Z,1.36
2022-12-02T02:39:34.000Z,1.38
2022-12-02T02:40:34.000Z,1.36
2022-12-02T02:41:34.000Z,1.34
2022-12-02T02:42:34.000Z,1.36
2022-12-02T02:43:34.000Z,1.35
2022-12-02T02:44:34.000Z,1.34
2022-12-02T02:45:34.000Z,1.36
2022-12-02T02:46:34.000Z,1.36
2022-12-02T02:47:34.000Z,1.36
2022-12-02T02:48:34.000Z,1.32
2022-12-02T02:49:34.000Z,1.34
2022-12-02T02:50:34.000Z,1.36
2022-12-02T02:51:34.000Z,1.34
2022-12-02T02:52:34.000Z,1.32
2022-12-02T02:53:34.000Z,1.34
2022-12-02T02:54:34.000Z,1.35
2022-12-02T02:55:34.000Z,1.38
2022-12-02T02:56:34.000Z,1.34
2022-12-02T02:57:34.000Z,1.36
2022-12-02T02:58:34.000Z,1.32
2022-12-02T02:59:34.000Z,1.34
2022-12-02T03:00:34.000Z,1.36
2022-12-02T03:01:34.000Z,1.35
2022-12-02T03:02:34.000Z,1.32
2022-12-02T03:03:34.000Z,1.35
2022-12-02T03:04:34.000Z,1.32
2022-12-02T03:05:34.000Z,1.35
2022-12-02T03:06:34.000Z,1.34
2022-12-02T03:07:34.000Z,1.36
2022-12-02T03:08:34.000Z,1.35
2022-12-02T03:09:34.000Z,1.34
2022-12-02T03:10:34.000Z,1.34
2022-12-02T03:11:34.000Z,1.39
2022-12-02T03:12:34.000Z,1.35
2022-12-02T03:13:34.000Z,1.32
2022-12-02T03:14:34.000Z,1.32
2022-12-02T03:15:34.000Z,1.34
2022-12-02T03:16:34.000Z,1.36
2022-12-02T03:17:34.000Z,1.34
2022-12-02T03:18:34.000Z,1.35
2022-12-02T03:19:34.000Z,1.36
2022-12-02T03:20:34.000Z,1.39
2022-12-02T03:21:34.000Z,1.35
2022-12-02T03:22:34.000Z,1.36
2022-12-02T03:23:34.000Z,1.35
2022-12-02T03:24:34.000Z,1.34
2022-12-02T03:25:34.000Z,1.34
2022-12-02T03:26:34.000Z,1.36
2022-12-02T03:27:34.000Z,1.38
2022-12-02T03:28:34.000Z,1.38
2022-12-02T03:29:34.000Z,1.32
2022-12-02T03:30:34.000Z,1.36
2022-12-02T03:31:34.000Z,1.36
2022-12-02T03:32:34.000Z,1.35
2022-12-02T03:33:34.000Z,1.32
2022-12-02T03:34:34.000Z,1.35
2022-12-02T03:35:34.000Z,1.38
2022-12-02T03:36:34.000Z,1.39
2022-12-02T03:37:34.000Z,1.35
2022-12-02T03:38:34.000Z,1.32
2022-12-02T03:39:34.000Z,1.38
2022-12-02T03:40:34.000Z,1.34
2022-12-02T03:41:34.000Z,1.31
2022-12-02T03:42:34.000Z,1.34
2022-12-02T03:43:34.000Z,1.36
2022-12-02T03:44:34.000Z,1.36
2022-12-02T03:45:34.000Z,1.31
2022-12-02T03:46:34.000Z,1.31
2022-12-02T03:47:34.000Z,1.34
2022-12-02T03:48:34.000Z,1.36
2022-12-02T03:49:34.000Z,1.42
2022-12-02T03:50:34.000Z,1.32
2022-12-02T03:51:34.000Z,1.34
2022-12-02T03:58:51.000Z,1.35
2022-12-02T03:58:51.000Z,1.38
2022-12-02T03:59:51.000Z,1.38
2022-12-02T04:00:51.000Z,1.42
2022-12-02T04:01:51.000Z,1.36
2022-12-02T04:02:51.000Z,1.36
2022-12-02T04:03:51.000Z,1.34
2022-12-02T04:04:51.000Z,1.42
2022-12-02T04:05:51.000Z,1.36
2022-12-02T04:06:51.000Z,1.39
2022-12-02T04:07:51.000Z,1.34
2022-12-02T04:08:51.000Z,1.39
2022-12-02T04:09:51.000Z,1.34
2022-12-02T04:10:51.000Z,1.36
2022-12-02T04:11:51.000Z,1.36
2022-12-02T04:12:51.000Z,1.36
2022-12-02T04:13:51.000Z,1.34
2022-12-02T04:14:51.000Z,1.36
2022-12-02T04:15:51.000Z,1.34
2022-12-02T04:16:51.000Z,1.38
2022-12-02T04:17:51.000Z,1.36
2022-12-02T04:18:51.000Z,1.35
2022-12-02T04:19:51.000Z,1.39
2022-12-02T04:20:51.000Z,1.34
2022-12-02T04:21:51.000Z,1.38
2022-12-02T04:22:51.000Z,1.36
2022-12-02T04:23:51.000Z,1.38
2022-12-02T04:24:51.000Z,1.35
2022-12-02T04:25:51.000Z,1.39
2022-12-02T04:26:51.000Z,1.42
2022-12-02T04:27:51.000Z,1.39
2022-12-02T04:28:51.000Z,1.38
2022-12-02T04:29:51.000Z,1.34
2022-12-02T04:30:51.000Z,1.39
2022-12-02T04:31:51.000Z,1.39
2022-12-02T04:32:51.000Z,1.35
2022-12-02T04:33:51.000Z,1.36
2022-12-02T04:34:51.000Z,1.44
2022-12-02T04:35:51.000Z,1.35
2022-12-02T04:36:51.000Z,1.38
2022-12-02T04:37:51.000Z,1.39
2022-12-02T04:38:51.000Z,1.43
2022-12-02T04:39:51.000Z,1.39
2022-12-02T04:40:51.000Z,1.38
2022-12-02T04:41:51.000Z,1.39
2022-12-02T04:42:51.000Z,1.38
2022-12-02T04:43:51.000Z,1.39
2022-12-02T04:44:51.000Z,1.35
2022-12-02T04:45:51.000Z,1.36
2022-12-02T04:46:51.000Z,1.39
2022-12-02T04:47:51.000Z,1.39
2022-12-02T04:48:51.000Z,1.38
2022-12-02T04:49:51.000Z,1.43
2022-12-02T04:50:51.000Z,1.39
2022-12-02T04:51:51.000Z,1.39
2022-12-02T04:52:51.000Z,1.42
2022-12-02T04:53:51.000Z,1.36
2022-12-02T04:54:51.000Z,1.44
2022-12-02T04:55:51.000Z,1.36
2022-12-02T04:56:51.000Z,1.42
2022-12-02T04:57:51.000Z,1.44
2022-12-02T04:58:51.000Z,1.36
2022-12-02T04:59:51.000Z,1.38
2022-12-02T05:00:51.000Z,1.38
2022-12-02T05:01:51.000Z,1.38
2022-12-02T05:02:51.000Z,1.38
2022-12-02T05:03:51.000Z,1.44
2022-12-02T05:04:51.000Z,1.43
2022-12-02T05:05:50.000Z,1.39
2022-12-02T05:06:50.000Z,1.43
2022-12-02T05:07:50.000Z,1.42
2022-12-02T05:08:50.000Z,1.42
2022-12-02T05:09:50.000Z,1.44
2022-12-02T05:10:50.000Z,1.39
2022-12-02T05:11:50.000Z,1.44
2022-12-02T05:12:50.000Z,1.47
2022-12-02T05:13:50.000Z,1.42
2022-12-02T05:14:50.000Z,1.47
2022-12-02T05:15:50.000Z,1.39
2022-12-02T05:16:50.000Z,1.47
2022-12-02T05:17:50.000Z,1.42
2022-12-02T05:18:50.000Z,1.42
2022-12-02T05:19:50.000Z,1.44
2022-12-02T05:20:50.000Z,1.43
2022-12-02T05:21:50.000Z,1.39
2022-12-02T05:22:50.000Z,1.46
2022-12-02T05:23:50.000Z,1.43
2022-12-02T05:24:50.000Z,1.49
2022-12-02T05:25:50.000Z,1.42
2022-12-02T05:26:50.000Z,1.44
2022-12-02T05:27:50.000Z,1.42
2022-12-02T05:28:50.000Z,1.43
2022-12-02T05:29:50.000Z,1.46
2022-12-02T05:30:50.000Z,1.43
2022-12-02T05:31:50.000Z,1.46
2022-12-02T05:32:50.000Z,1.43
2022-12-02T05:32:50.000Z,1.43
2022-12-02T05:33:50.000Z,1.43
2022-12-02T05:33:50.000Z,1.43
2022-12-02T05:34:50.000Z,1.43
2022-12-02T05:34:50.000Z,1.43
2022-12-02T05:35:50.000Z,1.44
2022-12-02T05:35:50.000Z,1.44
2022-12-02T05:36:50.000Z,1.49
2022-12-02T05:36:50.000Z,1.49
2022-12-02T05:37:50.000Z,1.46
2022-12-02T05:38:50.000Z,1.46
2022-12-02T05:39:50.000Z,1.43
2022-12-02T05:40:50.000Z,1.44
2022-12-02T05:41:50.000Z,1.49
2022-12-02T05:42:50.000Z,1.43
2022-12-02T05:43:50.000Z,1.49
2022-12-02T05:44:50.000Z,1.42
2022-12-02T05:45:50.000Z,1.46
2022-12-02T05:46:50.000Z,1.47
2022-12-02T05:47:50.000Z,1.43
2022-12-02T05:48:50.000Z,1.47
2022-12-02T05:49:50.000Z,1.43
2022-12-02T05:50:50.000Z,1.46
2022-12-02T05:51:50.000Z,1.44
2022-12-02T05:52:50.000Z,1.43
2022-12-02T05:53:50.000Z,1.47
2022-12-02T05:54:50.000Z,1.46
2022-12-02T05:55:50.000Z,1.49
2022-12-02T05:56:50.000Z,1.44
2022-12-02T05:57:50.000Z,1.46
2022-12-02T05:58:50.000Z,1.47
2022-12-02T05:59:50.000Z,1.43
2022-12-02T06:00:50.000Z,1.49
2022-12-02T06:01:50.000Z,1.44
2022-12-02T06:02:50.000Z,1.47
2022-12-02T06:03:50.000Z,1.47
2022-12-02T06:04:50.000Z,1.52
2022-12-02T06:05:50.000Z,1.49
2022-12-02T06:06:50.000Z,1.49
2022-12-02T06:07:50.000Z,1.50
2022-12-02T06:08:50.000Z,1.47
2022-12-02T06:09:50.000Z,1.50
2022-12-02T06:10:50.000Z,1.49
2022-12-02T06:11:50.000Z,1.44
2022-12-02T06:12:50.000Z,1.47
2022-12-02T06:13:50.000Z,1.46
2022-12-02T06:14:50.000Z,1.46
2022-12-02T06:15:50.000Z,1.46
2022-12-02T06:16:50.000Z,1.50
2022-12-02T06:17:50.000Z,1.49
2022-12-02T06:18:50.000Z,1.46
2022-12-02T06:19:50.000Z,1.47
2022-12-02T06:20:50.000Z,1.47
2022-12-02T06:21:50.000Z,1.46
2022-12-02T06:22:50.000Z,1.47
2022-12-02T06:23:50.000Z,1.49
2022-12-02T06:24:50.000Z,1.46
2022-12-02T06:25:50.000Z,1.44
2022-12-02T06:26:50.000Z,1.49
2022-12-02T06:27:50.000Z,1.46
2022-12-02T06:28:50.000Z,1.47
2022-12-02T06:29:50.000Z,1.49
2022-12-02T06:30:50.000Z,1.50
2022-12-02T06:31:50.000Z,1.47
2022-12-02T06:32:50.000Z,1.49
2022-12-02T06:33:50.000Z,1.47
2022-12-02T06:34:50.000Z,1.46
2022-12-02T06:35:50.000Z,1.49
2022-12-02T06:36:50.000Z,1.44
2022-12-02T06:37:50.000Z,1.46
2022-12-02T06:38:50.000Z,1.47
2022-12-02T06:39:50.000Z,1.47
2022-12-02T06:40:50.000Z,1.47
2022-12-02T06:41:50.000Z,1.50
2022-12-02T06:42:50.000Z,1.44
2022-12-02T06:43:50.000Z,1.49
2022-12-02T06:44:50.000Z,1.49
2022-12-02T06:45:50.000Z,1.46
2022-12-02T06:46:50.000Z,1.46
2022-12-02T06:47:50.000Z,1.46
2022-12-02T06:48:50.000Z,1.44
2022-12-02T06:49:50.000Z,1.47
2022-12-02T06:50:50.000Z,1.46
2022-12-02T06:51:50.000Z,1.47
2022-12-02T06:52:50.000Z,1.44
2022-12-02T06:53:50.000Z,1.44
2022-12-02T06:54:49.000Z,1.44
2022-12-02T06:55:49.000Z,1.50
2022-12-02T06:56:49.000Z,1.49
2022-12-02T06:57:49.000Z,1.44
2022-12-02T06:58:49.000Z,1.43
2022-12-02T06:59:49.000Z,1.44
2022-12-02T07:00:49.000Z,1.44
2022-12-02T07:01:49.000Z,1.50
2022-12-02T07:02:49.000Z,1.47
2022-12-02T07:03:49.000Z,1.46
2022-12-02T07:04:49.000Z,1.47
2022-12-02T07:05:49.000Z,1.47
2022-12-02T07:06:49.000Z,1.49
2022-12-02T07:07:49.000Z,1.44
2022-12-02T07:08:49.000Z,1.47
2022-12-02T07:09:49.000Z,1.44
2022-12-02T07:10:49.000Z,1.47
2022-12-02T07:11:49.000Z,1.49
2022-12-02T07:12:49.000Z,1.47
2022-12-02T07:13:49.000Z,1.52
2022-12-02T07:14:49.000Z,1.43
2022-12-02T07:15:49.000Z,1.47
2022-12-02T07:16:49.000Z,1.47
2022-12-02T07:17:49.000Z,1.50
2022-12-02T07:18:49.000Z,1.49
2022-12-02T07:19:49.000Z,1.49
2022-12-02T07:20:49.000Z,1.50
2022-12-02T07:21:49.000Z,1.49
2022-12-02T07:22:49.000Z,1.53
2022-12-02T07:23:49.000Z,1.52
2022-12-02T07:24:49.000Z,1.50
2022-12-02T07:25:49.000Z,1.52
2022-12-02T07:26:49.000Z,1.47
2022-12-02T07:27:49.000Z,1.50
2022-12-02T07:28:49.000Z,1.52
2022-12-02T07:29:49.000Z,1.49
2022-12-02T07:30:49.000Z,1.49
2022-12-02T07:31:49.000Z,1.53
2022-12-02T07:32:49.000Z,1.52
2022-12-02T07:33:49.000Z,1.52
2022-12-02T07:34:49.000Z,1.56
2022-12-02T07:35:49.000Z,1.57
2022-12-02T07:36:49.000Z,1.53
2022-12-02T07:37:49.000Z,1.52
2022-12-02T07:38:49.000Z,1.53
2022-12-02T07:39:49.000Z,1.57
2022-12-02T07:40:49.000Z,1.60
2022-12-02T07:41:49.000Z,1.53
2022-12-02T07:42:49.000Z,1.57
2022-12-02T07:43:49.000Z,1.56
2022-12-02T07:44:49.000Z,1.61
2022-12-02T07:45:49.000Z,1.60
2022-12-02T07:46:49.000Z,1.57
2022-12-02T07:47:49.000Z,1.60
2022-12-02T07:48:49.000Z,1.60
2022-12-02T07:49:49.000Z,1.57
2022-12-02T07:50:49.000Z,1.57
2022-12-02T07:51:49.000Z,1.60
2022-12-02T07:52:49.000Z,1.61
2022-12-02T07:53:49.000Z,1.64
2022-12-02T07:54:49.000Z,1.64
2022-12-02T07:55:49.000Z,1.65
2022-12-02T07:56:49.000Z,1.71
2022-12-02T07:57:49.000Z,1.68
2022-12-02T07:58:49.000Z,1.74
2022-12-02T07:59:49.000Z,1.79
2022-12-02T08:00:49.000Z,1.77
2022-12-02T08:01:49.000Z,1.77
2022-12-02T08:02:49.000Z,1.83
2022-12-02T08:03:49.000Z,1.83
2022-12-02T08:04:49.000Z,1.85
2022-12-02T08:05:49.000Z,1.85
2022-12-02T08:06:49.000Z,1.93
2022-12-02T08:07:49.000Z,1.90
2022-12-02T08:08:49.000Z,1.95
2022-12-02T08:09:49.000Z,1.98
2022-12-02T08:10:49.000Z,2.00
2022-12-02T08:11:49.000Z,2.00
2022-12-02T08:12:49.000Z,2.01
2022-12-02T08:13:49.000Z,2.00
2022-12-02T08:14:49.000Z,2.08
2022-12-02T08:15:49.000Z,2.09
2022-12-02T08:16:49.000Z,2.08
2022-12-02T08:17:49.000Z,2.12
2022-12-02T08:18:49.000Z,2.09
2022-12-02T08:19:49.000Z,2.12
2022-12-02T08:20:49.000Z,2.19
2022-12-02T08:21:49.000Z,2.18
2022-12-02T08:22:49.000Z,2.19
2022-12-02T08:23:49.000Z,2.20
2022-12-02T08:24:49.000Z,2.22
2022-12-02T08:25:49.000Z,2.26
2022-12-02T08:26:49.000Z,2.22
2022-12-02T08:27:49.000Z,2.23
2022-12-02T08:28:49.000Z,2.26
2022-12-02T08:29:49.000Z,2.23
2022-12-02T08:30:49.000Z,2.25
2022-12-02T08:31:49.000Z,2.26
2022-12-02T08:32:49.000Z,2.26
2022-12-02T08:33:49.000Z,2.27
2022-12-02T08:34:49.000Z,2.23
2022-12-02T08:35:49.000Z,2.25
2022-12-02T08:36:49.000Z,2.23
2022-12-02T08:37:49.000Z,2.23
2022-12-02T08:38:49.000Z,2.20
2022-12-02T08:39:49.000Z,2.25
2022-12-02T08:40:49.000Z,2.20
2022-12-02T08:41:49.000Z,2.19
2022-12-02T08:42:49.000Z,2.23
2022-12-02T08:43:49.000Z,2.20
2022-12-02T08:44:48.000Z,2.18
2022-12-02T08:45:48.000Z,2.15
2022-12-02T08:46:48.000Z,2.18
2022-12-02T08:47:48.000Z,2.15
2022-12-02T08:48:48.000Z,2.11
2022-12-02T08:49:48.000Z,2.12
2022-12-02T08:50:48.000Z,2.09
2022-12-02T08:51:48.000Z,2.11
2022-12-02T08:52:48.000Z,2.12
2022-12-02T08:53:48.000Z,2.09
2022-12-02T08:54:48.000Z,2.08
2022-12-02T08:55:48.000Z,2.08
2022-12-02T08:56:48.000Z,2.09
2022-12-02T08:57:48.000Z,2.09
2022-12-02T08:58:48.000Z,2.05
2022-12-02T08:59:48.000Z,2.09
2022-12-02T09:00:48.000Z,2.11
2022-12-02T09:01:48.000Z,2.11
2022-12-02T09:02:48.000Z,2.11
2022-12-02T09:03:48.000Z,2.05
2022-12-02T09:04:48.000Z,2.09
2022-12-02T09:05:48.000Z,2.09
2022-12-02T09:06:48.000Z,2.11
2022-12-02T09:07:48.000Z,2.05
2022-12-02T09:08:48.000Z,2.07
2022-12-02T09:09:48.000Z,2.09
2022-12-02T09:10:48.000Z,2.09
2022-12-02T09:11:48.000Z,2.11
2022-12-02T09:12:48.000Z,2.11
2022-12-02T09:13:48.000Z,2.08
2022-12-02T09:14:48.000Z,2.09
2022-12-02T09:15:48.000Z,2.08
2022-12-02T09:16:48.000Z,2.07
2022-12-02T09:17:48.000Z,2.07
2022-12-02T09:18:48.000Z,2.05
2022-12-02T09:19:48.000Z,2.05
2022-12-02T09:20:48.000Z,2.07
2022-12-02T09:21:48.000Z,2.07
2022-12-02T09:22:48.000Z,2.08
2022-12-02T09:23:48.000Z,2.05
2022-12-02T09:24:48.000Z,2.05
2022-12-02T09:25:48.000Z,2.02
2022-12-02T09:26:48.000Z,2.08
2022-12-02T09:27:48.000Z,2.04
2022-12-02T09:28:48.000Z,2.07
2022-12-02T09:29:48.000Z,2.04
2022-12-02T09:30:48.000Z,2.09
2022-12-02T09:31:48.000Z,2.04
2022-12-02T09:32:48.000Z,2.07
2022-12-02T09:33:48.000Z,2.08
2022-12-02T09:34:48.000Z,2.07
2022-12-02T09:35:48.000Z,2.09
2022-12-02T09:36:48.000Z,2.09
2022-12-02T09:37:48.000Z,2.08
2022-12-02T09:38:48.000Z,2.12
2022-12-02T09:39:48.000Z,2.12
2022-12-02T09:40:48.000Z,2.12
2022-12-02T09:41:48.000Z,2.09
2022-12-02T09:42:48.000Z,2.09
2022-12-02T09:43:48.000Z,2.11
2022-12-02T09:44:48.000Z,2.18
2022-12-02T09:45:48.000Z,2.14
2022-12-02T09:46:48.000Z,2.12
2022-12-02T09:47:48.000Z,2.19
2022-12-02T09:48:48.000Z,2.14
2022-12-02T09:49:48.000Z,2.15
2022-12-02T09:50:48.000Z,2.20
2022-12-02T09:51:48.000Z,2.20
2022-12-02T09:52:48.000Z,2.22
2022-12-02T09:53:48.000Z,2.19
2022-12-02T09:54:48.000Z,2.19
2022-12-02T09:55:48.000Z,2.19
2022-12-02T09:56:48.000Z,2.22
2022-12-02T09:57:48.000Z,2.20
2022-12-02T09:58:48.000Z,2.23
2022-12-02T09:59:48.000Z,2.23
2022-12-02T10:00:48.000Z,2.22
2022-12-02T10:01:48.000Z,2.26
2022-12-02T10:02:48.000Z,2.25
2022-12-02T10:03:48.000Z,2.22
2022-12-02T10:04:48.000Z,2.29
2022-12-02T10:05:48.000Z,2.25
2022-12-02T10:06:48.000Z,2.30
2022-12-02T10:07:48.000Z,2.33
2022-12-02T10:08:48.000Z,2.29
2022-12-02T10:09:48.000Z,2.32
2022-12-02T10:10:48.000Z,2.36
2022-12-02T10:11:48.000Z,2.36
2022-12-02T10:12:48.000Z,2.33
2022-12-02T10:13:48.000Z,2.37
2022-12-02T10:14:48.000Z,2.37
2022-12-02T10:15:48.000Z,2.33
2022-12-02T10:16:48.000Z,2.40
2022-12-02T10:17:48.000Z,2.32
2022-12-02T10:18:48.000Z,2.33
2022-12-02T10:19:48.000Z,2.36
2022-12-02T10:20:48.000Z,2.33
2022-12-02T10:21:48.000Z,2.30
2022-12-02T10:22:48.000Z,2.29
2022-12-02T10:23:48.000Z,2.29
2022-12-02T10:24:48.000Z,2.33
2022-12-02T10:25:48.000Z,2.37
2022-12-02T10:26:48.000Z,2.27
2022-12-02T10:27:48.000Z,2.27
2022-12-02T10:28:48.000Z,2.26
2022-12-02T10:29:48.000Z,2.29
2022-12-02T10:30:48.000Z,2.30
2022-12-02T10:31:48.000Z,2.25
2022-12-02T10:32:48.000Z,2.29
2022-12-02T10:33:48.000Z,2.25
2022-12-02T10:34:47.000Z,2.23
2022-12-02T10:35:47.000Z,2.26
2022-12-02T10:36:47.000Z,2.22
2022-12-02T10:37:47.000Z,2.20
2022-12-02T10:38:47.000Z,2.20
2022-12-02T10:39:47.000Z,2.22
2022-12-02T10:40:47.000Z,2.22
2022-12-02T10:41:47.000Z,2.22
2022-12-02T10:42:47.000Z,2.18
2022-12-02T10:43:47.000Z,2.20
2022-12-02T10:44:47.000Z,2.20
2022-12-02T10:45:47.000Z,2.22
2022-12-02T10:46:47.000Z,2.14
2022-12-02T10:47:47.000Z,2.14
2022-12-02T10:48:47.000Z,2.12
2022-12-02T10:49:47.000Z,2.19
2022-12-02T10:50:47.000Z,2.15
2022-12-02T10:51:47.000Z,2.14
2022-12-02T10:52:47.000Z,2.14
2022-12-02T10:53:47.000Z,2.15
2022-12-02T10:54:47.000Z,2.15
2022-12-02T10:55:47.000Z,2.11
2022-12-02T10:56:47.000Z,2.18
2022-12-02T10:57:47.000Z,2.18
2022-12-02T10:58:47.000Z,2.11
2022-12-02T10:59:47.000Z,2.14
2022-12-02T11:00:47.000Z,2.11
2022-12-02T11:01:47.000Z,2.15
2022-12-02T11:02:47.000Z,2.18
2022-12-02T11:03:47.000Z,2.12
2022-12-02T11:04:47.000Z,2.12
2022-12-02T11:05:47.000Z,2.12
2022-12-02T11:06:47.000Z,2.09
2022-12-02T11:07:47.000Z,2.12
2022-12-02T11:08:47.000Z,2.14
2022-12-02T11:09:47.000Z,2.08
2022-12-02T11:10:47.000Z,2.07
2022-12-02T11:11:47.000Z,2.11
2022-12-02T11:12:47.000Z,2.09
2022-12-02T11:13:47.000Z,2.11
2022-12-02T11:14:47.000Z,2.09
2022-12-02T11:15:47.000Z,2.08
2022-12-02T11:16:47.000Z,2.08
2022-12-02T11:17:47.000Z,2.07
2022-12-02T11:18:47.000Z,2.08
2022-12-02T11:19:47.000Z,2.08
2022-12-02T11:20:47.000Z,2.07
2022-12-02T11:21:47.000Z,2.12
2022-12-02T11:22:47.000Z,2.07
2022-12-02T11:23:47.000Z,2.08
2022-12-02T11:24:47.000Z,2.05
2022-12-02T11:25:47.000Z,2.05
2022-12-02T11:26:47.000Z,2.11
2022-12-02T11:27:47.000Z,2.07
2022-12-02T11:28:47.000Z,2.07
2022-12-02T11:29:47.000Z,2.12
2022-12-02T11:30:47.000Z,2.09
2022-12-02T11:31:47.000Z,2.04
2022-12-02T11:32:47.000Z,2.05
2022-12-02T11:33:47.000Z,2.08
2022-12-02T11:34:47.000Z,2.11
2022-12-02T11:35:47.000Z,2.08
2022-12-02T11:36:47.000Z,2.08
2022-12-02T11:37:47.000Z,2.08
2022-12-02T11:38:47.000Z,2.11
2022-12-02T11:39:47.000Z,2.08
2022-12-02T11:40:47.000Z,2.08
2022-12-02T11:41:47.000Z,2.09
2022-12-02T11:42:47.000Z,2.07
2022-12-02T11:43:47.000Z,2.08
2022-12-02T11:44:47.000Z,2.08
2022-12-02T11:45:47.000Z,2.09
2022-12-02T11:46:47.000Z,2.04
2022-12-02T11:47:47.000Z,2.05
2022-12-02T11:48:47.000Z,2.08
2022-12-02T11:49:47.000Z,2.05
2022-12-02T11:50:47.000Z,2.05
2022-12-02T11:51:47.000Z,2.09
2022-12-02T11:52:47.000Z,2.09
2022-12-02T11:53:47.000Z,2.07
2022-12-02T11:54:47.000Z,2.09
2022-12-02T11:55:47.000Z,2.09
2022-12-02T11:56:47.000Z,2.11
2022-12-02T11:57:47.000Z,2.12
2022-12-02T11:58:47.000Z,2.11
2022-12-02T11:59:47.000Z,2.07
2022-12-02T12:00:47.000Z,2.12
2022-12-02T12:01:47.000Z,2.11
2022-12-02T12:02:47.000Z,2.08
2022-12-02T12:02:47.000Z,2.08
2022-12-02T12:03:47.000Z,2.09
2022-12-02T12:03:47.000Z,2.09
2022-12-02T12:04:47.000Z,2.12
2022-12-02T12:04:47.000Z,2.12
2022-12-02T12:05:47.000Z,2.11
2022-12-02T12:05:47.000Z,2.11
2022-12-02T12:06:47.000Z,2.09
2022-12-02T12:06:47.000Z,2.09
2022-12-02T12:07:47.000Z,2.11
2022-12-02T12:08:47.000Z,2.11
2022-12-02T12:09:47.000Z,2.14
2022-12-02T12:10:47.000Z,2.12
2022-12-02T12:11:47.000Z,2.08
2022-12-02T12:12:47.000Z,2.14
2022-12-02T12:13:47.000Z,2.09
2022-12-02T12:14:47.000Z,2.12
2022-12-02T12:15:47.000Z,2.08
2022-12-02T12:16:47.000Z,2.12
2022-12-02T12:17:47.000Z,2.08
2022-12-02T12:18:47.000Z,2.11
2022-12-02T12:19:47.000Z,2.07
2022-12-02T12:20:47.000Z,2.11
2022-12-02T12:21:47.000Z,2.12
2022-12-02T12:22:47.000Z,2.11
2022-12-02T12:23:46.000Z,2.09
2022-12-02T12:24:46.000Z,2.14
2022-12-02T12:25:46.000Z,2.05
2022-12-02T12:26:46.000Z,2.08
2022-12-02T12:27:46.000Z,2.08
2022-12-02T12:28:46.000Z,2.11
2022-12-02T12:29:46.000Z,2.11
2022-12-02T12:30:46.000Z,2.11
2022-12-02T12:31:46.000Z,2.08
2022-12-02T12:32:46.000Z,2.09
2022-12-02T12:33:46.000Z,2.08
2022-12-02T12:34:46.000Z,2.07
2022-12-02T12:35:46.000Z,2.05
2022-12-02T12:36:46.000Z,2.07
2022-12-02T12:37:46.000Z,2.07
2022-12-02T12:38:46.000Z,2.07
2022-12-02T12:39:46.000Z,2.04
2022-12-02T12:40:46.000Z,2.04
2022-12-02T12:41:46.000Z,2.07
2022-12-02T12:42:46.000Z,2.04
2022-12-02T12:43:46.000Z,2.05
2022-12-02T12:44:46.000Z,2.05
2022-12-02T12:45:46.000Z,2.02
2022-12-02T12:46:46.000Z,2.02
2022-12-02T12:47:46.000Z,2.01
2022-12-02T12:48:46.000Z,2.00
2022-12-02T12:49:46.000Z,2.02
2022-12-02T12:50:46.000Z,2.01
2022-12-02T12:51:46.000Z,2.04
2022-12-02T12:52:46.000Z,2.05
2022-12-02T12:53:46.000Z,2.00
2022-12-02T12:54:46.000Z,2.01
2022-12-02T12:55:46.000Z,2.01
2022-12-02T12:56:46.000Z,2.02
2022-12-02T12:57:46.000Z,2.00
2022-12-02T12:58:46.000Z,2.04
2022-12-02T12:59:46.000Z,2.01
2022-12-02T13:00:46.000Z,2.02
2022-12-02T13:01:46.000Z,2.02
2022-12-02T13:02:46.000Z,2.02
2022-12-02T13:03:46.000Z,2.04
2022-12-02T13:04:46.000Z,2.04
2022-12-02T13:05:46.000Z,2.01
2022-12-02T13:06:46.000Z,2.01
2022-12-02T13:07:46.000Z,2.02
2022-12-02T13:08:46.000Z,2.00
2022-12-02T13:09:46.000Z,2.00
2022-12-02T13:10:46.000Z,1.95
2022-12-02T13:11:46.000Z,2.01
2022-12-02T13:12:46.000Z,1.98
2022-12-02T13:13:46.000Z,1.95
2022-12-02T13:14:46.000Z,2.00
2022-12-02T13:15:46.000Z,1.98
2022-12-02T13:16:46.000Z,2.00
2022-12-02T13:17:46.000Z,1.98
2022-12-02T13:18:46.000Z,2.00